sensor_id;sensor_type;location;lat;lon;timestamp;P1;durP1;ratioP1;P2;durP2;ratioP2
75209;SDS011;63796;53.136;14.882;2024-03-08T00:03:24;64.40;;;23.40;;
75209;SDS011;63796;53.136;14.882;2024-03-08T00:07:24;70.00;;;22.70;;
75209;SDS011;63796;53.136;14.882;2024-03-08T00:11:25;70.40;;;25.70;;
75209;SDS011;63796;53.136;14.882;2024-03-08T00:15:26;79.20;;;25.60;;
75209;SDS011;63796;53.136;14.882;2024-03-08T00:19:27;67.10;;;25.20;;
75209;SDS011;63796;53.136;14.882;2024-03-08T00:23:27;68.50;;;24.60;;
75209;SDS011;63796;53.136;14.882;2024-03-08T00:27:28;65.00;;;23.90;;
75209;SDS011;63796;53.136;14.882;2024-03-08T00:31:29;66.90;;;24.80;;
75209;SDS011;63796;53.136;14.882;2024-03-08T00:35:30;72.90;;;25.30;;
75209;SDS011;63796;53.136;14.882;2024-03-08T00:39:30;69.70;;;24.50;;
75209;SDS011;63796;53.136;14.882;2024-03-08T00:43:31;70.30;;;23.50;;
75209;SDS011;63796;53.136;14.882;2024-03-08T00:47:32;64.00;;;23.40;;
75209;SDS011;63796;53.136;14.882;2024-03-08T00:51:33;63.60;;;24.20;;
75209;SDS011;63796;53.136;14.882;2024-03-08T00:55:33;71.70;;;25.40;;
75209;SDS011;63796;53.136;14.882;2024-03-08T00:59:34;69.80;;;23.80;;
75209;SDS011;63796;53.136;14.882;2024-03-08T01:03:35;57.70;;;22.60;;
75209;SDS011;63796;53.136;14.882;2024-03-08T01:07:36;58.00;;;23.20;;
75209;SDS011;63796;53.136;14.882;2024-03-08T01:11:36;57.10;;;20.20;;
75209;SDS011;63796;53.136;14.882;2024-03-08T01:15:37;59.80;;;21.70;;
75209;SDS011;63796;53.136;14.882;2024-03-08T01:19:38;50.60;;;20.20;;
75209;SDS011;63796;53.136;14.882;2024-03-08T01:23:39;55.60;;;19.90;;
75209;SDS011;63796;53.136;14.882;2024-03-08T01:27:39;56.10;;;20.00;;
75209;SDS011;63796;53.136;14.882;2024-03-08T01:31:40;61.20;;;21.70;;
75209;SDS011;63796;53.136;14.882;2024-03-08T01:35:41;54.70;;;20.60;;
75209;SDS011;63796;53.136;14.882;2024-03-08T01:39:42;53.80;;;19.70;;
75209;SDS011;63796;53.136;14.882;2024-03-08T01:43:45;46.70;;;18.70;;
75209;SDS011;63796;53.136;14.882;2024-03-08T01:47:46;43.30;;;18.60;;
75209;SDS011;63796;53.136;14.882;2024-03-08T01:51:48;44.90;;;19.20;;
75209;SDS011;63796;53.136;14.882;2024-03-08T01:58:54;54.50;;;20.70;;
75209;SDS011;63796;53.136;14.882;2024-03-08T02:02:55;44.30;;;18.30;;
75209;SDS011;63796;53.136;14.882;2024-03-08T02:06:56;44.50;;;19.20;;
75209;SDS011;63796;53.136;14.882;2024-03-08T02:10:56;43.40;;;18.10;;
75209;SDS011;63796;53.136;14.882;2024-03-08T02:14:57;45.20;;;18.10;;
75209;SDS011;63796;53.136;14.882;2024-03-08T02:18:58;41.40;;;16.40;;
75209;SDS011;63796;53.136;14.882;2024-03-08T02:22:59;35.50;;;15.10;;
75209;SDS011;63796;53.136;14.882;2024-03-08T02:26:59;33.80;;;14.60;;
75209;SDS011;63796;53.136;14.882;2024-03-08T02:31:00;37.80;;;14.10;;
75209;SDS011;63796;53.136;14.882;2024-03-08T02:35:01;36.00;;;14.00;;
75209;SDS011;63796;53.136;14.882;2024-03-08T02:39:02;35.70;;;13.90;;
75209;SDS011;63796;53.136;14.882;2024-03-08T02:43:02;31.60;;;14.20;;
75209;SDS011;63796;53.136;14.882;2024-03-08T02:47:03;35.40;;;13.10;;
75209;SDS011;63796;53.136;14.882;2024-03-08T02:51:04;34.90;;;12.40;;
75209;SDS011;63796;53.136;14.882;2024-03-08T02:55:05;32.50;;;13.00;;
75209;SDS011;63796;53.136;14.882;2024-03-08T02:59:06;33.10;;;13.00;;
75209;SDS011;63796;53.136;14.882;2024-03-08T03:03:07;27.60;;;12.10;;
75209;SDS011;63796;53.136;14.882;2024-03-08T03:07:07;29.70;;;12.00;;
75209;SDS011;63796;53.136;14.882;2024-03-08T03:11:08;26.10;;;11.00;;
75209;SDS011;63796;53.136;14.882;2024-03-08T03:15:09;32.80;;;13.30;;
75209;SDS011;63796;53.136;14.882;2024-03-08T03:19:09;27.10;;;11.30;;
75209;SDS011;63796;53.136;14.882;2024-03-08T03:23:10;26.90;;;12.70;;
75209;SDS011;63796;53.136;14.882;2024-03-08T03:27:11;25.40;;;11.80;;
75209;SDS011;63796;53.136;14.882;2024-03-08T03:31:12;24.60;;;10.10;;
75209;SDS011;63796;53.136;14.882;2024-03-08T03:35:16;26.70;;;11.40;;
75209;SDS011;63796;53.136;14.882;2024-03-08T03:39:13;26.20;;;11.30;;
75209;SDS011;63796;53.136;14.882;2024-03-08T03:43:16;24.70;;;10.80;;
75209;SDS011;63796;53.136;14.882;2024-03-08T03:47:20;25.60;;;10.90;;
75209;SDS011;63796;53.136;14.882;2024-03-08T03:51:21;26.70;;;11.00;;
75209;SDS011;63796;53.136;14.882;2024-03-08T03:55:21;28.50;;;11.00;;
75209;SDS011;63796;53.136;14.882;2024-03-08T03:59:22;27.00;;;11.10;;
75209;SDS011;63796;53.136;14.882;2024-03-08T04:03:23;26.50;;;10.80;;
75209;SDS011;63796;53.136;14.882;2024-03-08T04:07:24;23.00;;;10.20;;
75209;SDS011;63796;53.136;14.882;2024-03-08T04:11:24;25.50;;;10.20;;
75209;SDS011;63796;53.136;14.882;2024-03-08T04:15:25;23.40;;;10.00;;
75209;SDS011;63796;53.136;14.882;2024-03-08T04:19:26;23.50;;;10.40;;
75209;SDS011;63796;53.136;14.882;2024-03-08T04:23:27;23.70;;;10.20;;
75209;SDS011;63796;53.136;14.882;2024-03-08T04:27:27;26.60;;;11.40;;
75209;SDS011;63796;53.136;14.882;2024-03-08T04:31:28;25.60;;;10.80;;
75209;SDS011;63796;53.136;14.882;2024-03-08T04:35:29;26.10;;;10.30;;
75209;SDS011;63796;53.136;14.882;2024-03-08T04:39:30;26.50;;;10.00;;
75209;SDS011;63796;53.136;14.882;2024-03-08T04:43:30;24.90;;;10.70;;
75209;SDS011;63796;53.136;14.882;2024-03-08T04:47:31;28.90;;;10.70;;
75209;SDS011;63796;53.136;14.882;2024-03-08T04:51:32;26.30;;;11.30;;
75209;SDS011;63796;53.136;14.882;2024-03-08T04:55:33;33.20;;;12.40;;
75209;SDS011;63796;53.136;14.882;2024-03-08T04:59:33;37.60;;;12.60;;
75209;SDS011;63796;53.136;14.882;2024-03-08T05:03:34;31.80;;;12.80;;
75209;SDS011;63796;53.136;14.882;2024-03-08T05:07:35;33.50;;;12.20;;
75209;SDS011;63796;53.136;14.882;2024-03-08T05:11:36;34.00;;;12.20;;
75209;SDS011;63796;53.136;14.882;2024-03-08T05:15:36;30.20;;;11.60;;
75209;SDS011;63796;53.136;14.882;2024-03-08T05:19:37;27.90;;;11.90;;
75209;SDS011;63796;53.136;14.882;2024-03-08T05:23:38;29.00;;;11.50;;
75209;SDS011;63796;53.136;14.882;2024-03-08T05:27:38;27.60;;;10.10;;
75209;SDS011;63796;53.136;14.882;2024-03-08T05:31:46;26.80;;;10.80;;
75209;SDS011;63796;53.136;14.882;2024-03-08T05:35:43;21.20;;;10.30;;
75209;SDS011;63796;53.136;14.882;2024-03-08T05:39:44;25.00;;;10.90;;
75209;SDS011;63796;53.136;14.882;2024-03-08T05:43:45;24.80;;;11.90;;
75209;SDS011;63796;53.136;14.882;2024-03-08T05:47:45;24.20;;;10.80;;
75209;SDS011;63796;53.136;14.882;2024-03-08T05:51:46;30.70;;;12.00;;
75209;SDS011;63796;53.136;14.882;2024-03-08T05:55:47;26.00;;;10.80;;
75209;SDS011;63796;53.136;14.882;2024-03-08T05:59:48;27.80;;;12.00;;
75209;SDS011;63796;53.136;14.882;2024-03-08T06:03:48;32.60;;;11.70;;
75209;SDS011;63796;53.136;14.882;2024-03-08T06:07:49;31.30;;;12.40;;
75209;SDS011;63796;53.136;14.882;2024-03-08T06:11:50;28.60;;;12.00;;
75209;SDS011;63796;53.136;14.882;2024-03-08T06:15:51;29.90;;;11.70;;
75209;SDS011;63796;53.136;14.882;2024-03-08T06:19:51;31.60;;;12.30;;
75209;SDS011;63796;53.136;14.882;2024-03-08T06:23:53;31.90;;;12.70;;
75209;SDS011;63796;53.136;14.882;2024-03-08T06:27:53;25.90;;;12.70;;
75209;SDS011;63796;53.136;14.882;2024-03-08T06:31:54;32.10;;;12.20;;
75209;SDS011;63796;53.136;14.882;2024-03-08T06:35:54;31.20;;;12.70;;
75209;SDS011;63796;53.136;14.882;2024-03-08T06:39:55;36.60;;;12.00;;
75209;SDS011;63796;53.136;14.882;2024-03-08T06:43:56;30.80;;;12.90;;
75209;SDS011;63796;53.136;14.882;2024-03-08T06:47:56;27.80;;;12.60;;
75209;SDS011;63796;53.136;14.882;2024-03-08T06:51:57;30.20;;;13.10;;
75209;SDS011;63796;53.136;14.882;2024-03-08T06:55:58;29.00;;;14.20;;
75209;SDS011;63796;53.136;14.882;2024-03-08T06:59:59;26.50;;;14.80;;
75209;SDS011;63796;53.136;14.882;2024-03-08T07:04:02;26.40;;;15.30;;
75209;SDS011;63796;53.136;14.882;2024-03-08T07:08:03;23.30;;;15.80;;
75209;SDS011;63796;53.136;14.882;2024-03-08T07:12:04;29.70;;;16.60;;
75209;SDS011;63796;53.136;14.882;2024-03-08T07:16:05;21.00;;;15.20;;
75209;SDS011;63796;53.136;14.882;2024-03-08T07:20:06;21.60;;;15.10;;
75209;SDS011;63796;53.136;14.882;2024-03-08T07:24:06;24.20;;;15.60;;
75209;SDS011;63796;53.136;14.882;2024-03-08T07:28:13;22.80;;;14.50;;
75209;SDS011;63796;53.136;14.882;2024-03-08T07:32:14;29.10;;;15.30;;
75209;SDS011;63796;53.136;14.882;2024-03-08T07:36:15;28.00;;;14.70;;
75209;SDS011;63796;53.136;14.882;2024-03-08T07:40:15;20.80;;;13.50;;
75209;SDS011;63796;53.136;14.882;2024-03-08T07:44:16;27.10;;;14.30;;
75209;SDS011;63796;53.136;14.882;2024-03-08T20:23:24;23.70;;;10.90;;
75209;SDS011;63796;53.136;14.882;2024-03-08T20:25:52;22.80;;;10.00;;
75209;SDS011;63796;53.136;14.882;2024-03-08T20:28:39;27.20;;;11.90;;
75209;SDS011;63796;53.136;14.882;2024-03-08T20:32:40;27.80;;;12.00;;
75209;SDS011;63796;53.136;14.882;2024-03-08T20:36:41;28.50;;;11.30;;
75209;SDS011;63796;53.136;14.882;2024-03-08T20:40:41;27.70;;;11.50;;
75209;SDS011;63796;53.136;14.882;2024-03-08T20:44:42;27.60;;;11.70;;
75209;SDS011;63796;53.136;14.882;2024-03-08T20:48:43;37.70;;;14.50;;
75209;SDS011;63796;53.136;14.882;2024-03-08T20:52:44;36.20;;;13.30;;
75209;SDS011;63796;53.136;14.882;2024-03-08T20:56:48;35.60;;;12.90;;
75209;SDS011;63796;53.136;14.882;2024-03-08T21:00:49;35.40;;;13.50;;
75209;SDS011;63796;53.136;14.882;2024-03-08T21:04:49;29.10;;;11.90;;
75209;SDS011;63796;53.136;14.882;2024-03-08T21:08:50;28.40;;;12.00;;
75209;SDS011;63796;53.136;14.882;2024-03-08T21:12:51;39.30;;;14.20;;
75209;SDS011;63796;53.136;14.882;2024-03-08T21:16:52;45.50;;;19.90;;
75209;SDS011;63796;53.136;14.882;2024-03-08T21:20:53;49.40;;;20.80;;
75209;SDS011;63796;53.136;14.882;2024-03-08T21:24:53;42.70;;;19.20;;
75209;SDS011;63796;53.136;14.882;2024-03-08T21:28:57;41.80;;;17.10;;
75209;SDS011;63796;53.136;14.882;2024-03-08T21:32:58;45.90;;;19.10;;
75209;SDS011;63796;53.136;14.882;2024-03-08T21:36:59;55.00;;;23.10;;
75209;SDS011;63796;53.136;14.882;2024-03-08T21:40:59;51.80;;;23.00;;
75209;SDS011;63796;53.136;14.882;2024-03-08T21:45:02;60.00;;;26.80;;
75209;SDS011;63796;53.136;14.882;2024-03-08T21:49:01;67.60;;;27.00;;
75209;SDS011;63796;53.136;14.882;2024-03-08T21:53:02;64.70;;;28.00;;
75209;SDS011;63796;53.136;14.882;2024-03-08T21:57:03;49.30;;;23.00;;
75209;SDS011;63796;53.136;14.882;2024-03-08T22:01:04;54.90;;;22.90;;
75209;SDS011;63796;53.136;14.882;2024-03-08T22:05:05;52.80;;;22.60;;
75209;SDS011;63796;53.136;14.882;2024-03-08T22:09:05;57.00;;;21.60;;
75209;SDS011;63796;53.136;14.882;2024-03-08T22:13:06;45.80;;;18.90;;
75209;SDS011;63796;53.136;14.882;2024-03-08T22:17:07;49.40;;;20.60;;
75209;SDS011;63796;53.136;14.882;2024-03-08T22:21:08;49.50;;;19.50;;
75209;SDS011;63796;53.136;14.882;2024-03-08T22:25:09;43.80;;;19.40;;
75209;SDS011;63796;53.136;14.882;2024-03-08T22:29:09;64.40;;;18.40;;
75209;SDS011;63796;53.136;14.882;2024-03-08T22:33:10;44.50;;;18.20;;
75209;SDS011;63796;53.136;14.882;2024-03-08T22:37:11;39.80;;;18.20;;
75209;SDS011;63796;53.136;14.882;2024-03-08T22:41:12;45.50;;;18.00;;
75209;SDS011;63796;53.136;14.882;2024-03-08T22:45:13;37.00;;;16.40;;
75209;SDS011;63796;53.136;14.882;2024-03-08T22:49:13;41.40;;;16.90;;
75209;SDS011;63796;53.136;14.882;2024-03-08T22:53:14;41.90;;;16.10;;
75209;SDS011;63796;53.136;14.882;2024-03-08T22:57:15;52.90;;;20.50;;
75209;SDS011;63796;53.136;14.882;2024-03-08T23:01:11;53.90;;;19.70;;
75209;SDS011;63796;53.136;14.882;2024-03-08T23:03:42;48.20;;;19.80;;
75209;SDS011;63796;53.136;14.882;2024-03-08T23:06:09;45.40;;;18.20;;
75209;SDS011;63796;53.136;14.882;2024-03-08T23:08:39;53.40;;;22.20;;
75209;SDS011;63796;53.136;14.882;2024-03-08T23:11:07;47.40;;;21.20;;
75209;SDS011;63796;53.136;14.882;2024-03-08T23:13:38;53.50;;;22.00;;
75209;SDS011;63796;53.136;14.882;2024-03-08T23:16:09;55.00;;;22.70;;
75209;SDS011;63796;53.136;14.882;2024-03-08T23:18:36;58.40;;;22.00;;
75209;SDS011;63796;53.136;14.882;2024-03-08T23:21:04;53.40;;;22.60;;
75209;SDS011;63796;53.136;14.882;2024-03-08T23:23:35;65.90;;;24.90;;
75209;SDS011;63796;53.136;14.882;2024-03-08T23:26:02;62.10;;;23.00;;
75209;SDS011;63796;53.136;14.882;2024-03-08T23:28:30;50.60;;;20.50;;
75209;SDS011;63796;53.136;14.882;2024-03-08T23:30:58;59.00;;;24.60;;
75209;SDS011;63796;53.136;14.882;2024-03-08T23:33:25;58.20;;;24.90;;
75209;SDS011;63796;53.136;14.882;2024-03-08T23:35:52;57.50;;;25.30;;
75209;SDS011;63796;53.136;14.882;2024-03-08T23:38:20;58.30;;;22.40;;
75209;SDS011;63796;53.136;14.882;2024-03-08T23:40:47;49.10;;;21.80;;
75209;SDS011;63796;53.136;14.882;2024-03-08T23:43:14;59.70;;;23.40;;
75209;SDS011;63796;53.136;14.882;2024-03-08T23:45:41;52.30;;;21.70;;
75209;SDS011;63796;53.136;14.882;2024-03-08T23:48:07;54.60;;;22.40;;
75209;SDS011;63796;53.136;14.882;2024-03-08T23:50:36;44.40;;;18.60;;
75209;SDS011;63796;53.136;14.882;2024-03-08T23:53:04;41.00;;;18.00;;
75209;SDS011;63796;53.136;14.882;2024-03-08T23:55:34;52.60;;;19.70;;
75209;SDS011;63796;53.136;14.882;2024-03-08T23:58:06;44.00;;;17.80;;
